F/V Louis Gaetane 2 — FO2401 — position and weather

sailwx.info

Track history (hours):
 
Tides and Currents Weather Stations Pressure Air Temp Water Temp Dewpoint Dewpoint Depression Visibility Wind Speed Wind Dir Waves Ship Positions

F/V Louis Gaetane 2

Last reported at 2017-Oct-20 06:59 UTC. Time now 2017-Oct-20 10:53 UTC.
Position N 43°18' E 004°10'.

Length 25 m.

Type: Fishing. MMSI: 227913000.

Date/timePositionNaut miles runAvg speedWind from/ knotsBaromVisibWave heightAir tempDewpointWater temp
2017-Oct-20 06:59N 43°18' E 004°10'1 2.8
2017-Oct-20 06:28N 43°17' E 004°12'2 4.0
2017-Oct-20 05:54N 43°19' E 004°09'2 4.4
2017-Oct-20 05:27N 43°19' E 004°07'2 4.5
2017-Oct-20 04:54N 43°20' E 004°03'2 4.4
2017-Oct-20 04:28N 43°21' E 004°01'  
2017-Oct-17 08:37N 43°11' E 004°15'1 4.4
2017-Oct-17 08:30N 43°11' E 004°16'3 3.5
2017-Oct-17 07:33N 43°09' E 004°12'1 4.3
2017-Oct-17 07:24N 43°09' E 004°12'0 0.9
2017-Oct-17 06:59N 43°08' E 004°11'2 3.4
2017-Oct-17 06:29N 43°09' E 004°09'20 0.7
2017-Oct-16 03:05N 43°14' E 003°43'4 4.4
2017-Oct-16 02:14N 43°18' E 003°42'  
2017-Oct-13 18:22N 43°24' E 003°42'0 0.0
2017-Oct-13 15:45N 43°24' E 003°42'0 0.1
2017-Oct-13 15:09N 43°24' E 003°42'0 0.0
2017-Oct-13 15:00N 43°24' E 003°42'1 1.1
2017-Oct-13 14:30N 43°23' E 003°42'8 5.8
2017-Oct-13 13:06N 43°18' E 003°50'23 3.6
2017-Oct-13 06:39N 43°01' E 003°28'0 1.5
2017-Oct-13 06:27N 43°01' E 003°28'4 4.2
2017-Oct-13 05:27N 43°04' E 003°32'2 4.3
2017-Oct-13 05:00N 43°06' E 003°34'2 4.3
2017-Oct-13 04:30N 43°07' E 003°36'2 4.4
2017-Oct-13 03:55N 43°09' E 003°38'2 4.3
2017-Oct-13 03:30N 43°11' E 003°39'2 4.4
2017-Oct-13 03:01N 43°13' E 003°40'2 4.4
2017-Oct-13 02:30N 43°15' E 003°41'2 4.4
2017-Oct-13 02:00N 43°17' E 003°42'3 4.5
2017-Oct-13 01:20N 43°20' E 003°42'4 0.4
2017-Oct-12 15:34N 43°24' E 003°42'0 0.0
2017-Oct-12 15:28N 43°24' E 003°42'0 0.0
2017-Oct-12 14:58N 43°24' E 003°42'0 0.0
2017-Oct-12 14:23N 43°24' E 003°42'  
Track history (hours):
 
Tides and Currents Weather Stations Pressure Air Temp Water Temp Dewpoint Dewpoint Depression Visibility Wind Speed Wind Dir Waves Ship Positions

F/V Louis Gaetane 2

Last reported at 2017-Oct-20 06:59 UTC. Time now 2017-Oct-20 10:53 UTC.
Position N 43°18' E 004°10'.

Length 25 m.

Type: Fishing. MMSI: 227913000.

Date/timePositionNaut miles runAvg speedWind from/ knotsBaromVisibWave heightAir tempDewpointWater temp
2017-Oct-20 06:59N 43°18' E 004°10'1 2.8
2017-Oct-20 06:28N 43°17' E 004°12'2 4.0
2017-Oct-20 05:54N 43°19' E 004°09'2 4.4
2017-Oct-20 05:27N 43°19' E 004°07'2 4.5
2017-Oct-20 04:54N 43°20' E 004°03'2 4.4
2017-Oct-20 04:28N 43°21' E 004°01'  
2017-Oct-17 08:37N 43°11' E 004°15'1 4.4
2017-Oct-17 08:30N 43°11' E 004°16'3 3.5
2017-Oct-17 07:33N 43°09' E 004°12'1 4.3
2017-Oct-17 07:24N 43°09' E 004°12'0 0.9
2017-Oct-17 06:59N 43°08' E 004°11'2 3.4
2017-Oct-17 06:29N 43°09' E 004°09'20 0.7
2017-Oct-16 03:05N 43°14' E 003°43'4 4.4
2017-Oct-16 02:14N 43°18' E 003°42'  
2017-Oct-13 18:22N 43°24' E 003°42'0 0.0
2017-Oct-13 15:45N 43°24' E 003°42'0 0.1
2017-Oct-13 15:09N 43°24' E 003°42'0 0.0
2017-Oct-13 15:00N 43°24' E 003°42'1 1.1
2017-Oct-13 14:30N 43°23' E 003°42'8 5.8
2017-Oct-13 13:06N 43°18' E 003°50'23 3.6
2017-Oct-13 06:39N 43°01' E 003°28'0 1.5
2017-Oct-13 06:27N 43°01' E 003°28'4 4.2
2017-Oct-13 05:27N 43°04' E 003°32'2 4.3
2017-Oct-13 05:00N 43°06' E 003°34'2 4.3
2017-Oct-13 04:30N 43°07' E 003°36'2 4.4
2017-Oct-13 03:55N 43°09' E 003°38'2 4.3
2017-Oct-13 03:30N 43°11' E 003°39'2 4.4
2017-Oct-13 03:01N 43°13' E 003°40'2 4.4
2017-Oct-13 02:30N 43°15' E 003°41'2 4.4
2017-Oct-13 02:00N 43°17' E 003°42'3 4.5
2017-Oct-13 01:20N 43°20' E 003°42'4 0.4
2017-Oct-12 15:34N 43°24' E 003°42'0 0.0
2017-Oct-12 15:28N 43°24' E 003°42'0 0.0
2017-Oct-12 14:58N 43°24' E 003°42'0 0.0
2017-Oct-12 14:23N 43°24' E 003°42'  

Dump ship's entire track history